sensor_id;sensor_type;location;lat;lon;timestamp;pressure;altitude;pressure_sealevel;temperature;humidity
62201;BME280;48197;42.732;27.192;2023-05-01T00:00:19;99629.06;;;7.52;100.00
62201;BME280;48197;42.732;27.192;2023-05-01T00:02:46;99636.94;;;7.54;100.00
62201;BME280;48197;42.732;27.192;2023-05-01T00:05:13;99633.34;;;7.39;100.00
62201;BME280;48197;42.732;27.192;2023-05-01T00:07:40;99630.53;;;7.28;100.00
62201;BME280;48197;42.732;27.192;2023-05-01T00:10:07;99630.03;;;7.12;100.00
62201;BME280;48197;42.732;27.192;2023-05-01T00:12:34;99638.59;;;7.03;100.00
62201;BME280;48197;42.732;27.192;2023-05-01T00:15:00;99640.56;;;7.03;100.00
62201;BME280;48197;42.732;27.192;2023-05-01T00:17:27;99644.94;;;7.07;100.00
62201;BME280;48197;42.732;27.192;2023-05-01T00:19:56;99641.41;;;7.10;100.00
62201;BME280;48197;42.732;27.192;2023-05-01T00:22:23;99641.88;;;7.20;100.00
62201;BME280;48197;42.732;27.192;2023-05-01T00:24:49;99636.88;;;7.40;100.00
62201;BME280;48197;42.732;27.192;2023-05-01T00:27:17;99637.72;;;7.54;100.00
62201;BME280;48197;42.732;27.192;2023-05-01T00:29:43;99645.19;;;7.54;100.00
62201;BME280;48197;42.732;27.192;2023-05-01T00:32:11;99647.09;;;7.46;100.00
62201;BME280;48197;42.732;27.192;2023-05-01T00:34:38;99650.63;;;7.43;100.00
62201;BME280;48197;42.732;27.192;2023-05-01T00:37:05;99645.16;;;7.50;100.00
62201;BME280;48197;42.732;27.192;2023-05-01T00:39:32;99649.66;;;7.84;100.00
62201;BME280;48197;42.732;27.192;2023-05-01T00:41:59;99651.69;;;8.05;100.00
62201;BME280;48197;42.732;27.192;2023-05-01T00:44:27;99648.53;;;8.10;100.00
62201;BME280;48197;42.732;27.192;2023-05-01T00:46:54;99658.38;;;8.11;100.00
62201;BME280;48197;42.732;27.192;2023-05-01T00:49:21;99649.31;;;8.10;100.00
62201;BME280;48197;42.732;27.192;2023-05-01T00:51:48;99658.75;;;8.06;100.00
62201;BME280;48197;42.732;27.192;2023-05-01T00:54:18;99654.00;;;7.99;100.00
62201;BME280;48197;42.732;27.192;2023-05-01T00:56:46;99646.09;;;7.87;100.00
62201;BME280;48197;42.732;27.192;2023-05-01T00:59:13;99647.59;;;7.70;100.00
62201;BME280;48197;42.732;27.192;2023-05-01T01:01:43;99653.06;;;7.55;100.00
62201;BME280;48197;42.732;27.192;2023-05-01T01:04:10;99650.22;;;7.41;100.00
62201;BME280;48197;42.732;27.192;2023-05-01T01:06:41;99647.81;;;7.29;100.00
62201;BME280;48197;42.732;27.192;2023-05-01T01:09:15;99651.66;;;7.17;100.00
62201;BME280;48197;42.732;27.192;2023-05-01T01:11:54;99653.63;;;7.16;100.00
62201;BME280;48197;42.732;27.192;2023-05-01T01:14:35;99653.97;;;7.11;100.00
62201;BME280;48197;42.732;27.192;2023-05-01T01:17:10;99657.50;;;7.08;100.00
62201;BME280;48197;42.732;27.192;2023-05-01T01:22:14;99664.97;;;7.11;100.00
62201;BME280;48197;42.732;27.192;2023-05-01T01:27:31;99661.50;;;7.22;100.00
62201;BME280;48197;42.732;27.192;2023-05-01T01:35:20;99665.75;;;7.12;100.00
62201;BME280;48197;42.732;27.192;2023-05-01T01:40:23;99658.44;;;7.34;100.00
62201;BME280;48197;42.732;27.192;2023-05-01T01:45:21;99663.25;;;7.51;100.00
62201;BME280;48197;42.732;27.192;2023-05-01T01:47:51;99669.25;;;7.75;100.00
62201;BME280;48197;42.732;27.192;2023-05-01T01:50:21;99661.06;;;7.86;100.00
62201;BME280;48197;42.732;27.192;2023-05-01T01:52:49;99655.16;;;7.87;100.00
62201;BME280;48197;42.732;27.192;2023-05-01T01:55:19;99657.16;;;7.94;100.00
62201;BME280;48197;42.732;27.192;2023-05-01T01:57:47;99660.69;;;8.02;100.00
62201;BME280;48197;42.732;27.192;2023-05-01T02:00:16;99656.00;;;8.09;100.00
62201;BME280;48197;42.732;27.192;2023-05-01T02:02:43;99669.00;;;8.16;100.00
62201;BME280;48197;42.732;27.192;2023-05-01T02:05:13;99663.91;;;8.22;100.00
62201;BME280;48197;42.732;27.192;2023-05-01T02:07:40;99663.91;;;8.22;100.00
62201;BME280;48197;42.732;27.192;2023-05-01T02:10:08;99667.84;;;8.24;100.00
62201;BME280;48197;42.732;27.192;2023-05-01T02:12:37;99668.63;;;8.17;100.00
62201;BME280;48197;42.732;27.192;2023-05-01T02:15:04;99667.38;;;8.04;100.00
62201;BME280;48197;42.732;27.192;2023-05-01T02:17:31;99668.19;;;8.05;100.00
62201;BME280;48197;42.732;27.192;2023-05-01T02:19:58;99673.31;;;8.03;100.00
62201;BME280;48197;42.732;27.192;2023-05-01T02:22:26;99684.63;;;7.87;100.00
62201;BME280;48197;42.732;27.192;2023-05-01T02:24:54;99676.31;;;7.69;100.00
62201;BME280;48197;42.732;27.192;2023-05-01T02:27:29;99682.50;;;7.55;100.00
62201;BME280;48197;42.732;27.192;2023-05-01T02:29:57;99678.53;;;7.49;100.00
62201;BME280;48197;42.732;27.192;2023-05-01T02:32:24;99682.16;;;7.60;100.00
62201;BME280;48197;42.732;27.192;2023-05-01T02:34:52;99684.97;;;7.74;100.00
62201;BME280;48197;42.732;27.192;2023-05-01T02:37:19;99685.38;;;7.73;100.00
62201;BME280;48197;42.732;27.192;2023-05-01T02:39:47;99681.84;;;7.76;100.00
62201;BME280;48197;42.732;27.192;2023-05-01T02:42:14;99693.72;;;7.94;100.00
62201;BME280;48197;42.732;27.192;2023-05-01T02:44:44;99702.41;;;8.00;100.00
62201;BME280;48197;42.732;27.192;2023-05-01T02:47:14;99692.94;;;8.01;100.00
62201;BME280;48197;42.732;27.192;2023-05-01T02:49:41;99703.97;;;8.05;100.00
62201;BME280;48197;42.732;27.192;2023-05-01T02:52:10;99704.41;;;8.14;100.00
62201;BME280;48197;42.732;27.192;2023-05-01T02:54:38;99700.88;;;8.21;100.00
62201;BME280;48197;42.732;27.192;2023-05-01T02:57:05;99703.25;;;8.29;100.00
62201;BME280;48197;42.732;27.192;2023-05-01T02:59:32;99709.56;;;8.33;100.00
62201;BME280;48197;42.732;27.192;2023-05-01T03:01:59;99710.34;;;8.30;100.00
62201;BME280;48197;42.732;27.192;2023-05-01T03:04:26;99720.19;;;8.31;100.00
62201;BME280;48197;42.732;27.192;2023-05-01T03:06:53;99721.75;;;8.29;100.00
62201;BME280;48197;42.732;27.192;2023-05-01T03:09:20;99724.09;;;8.20;100.00
62201;BME280;48197;42.732;27.192;2023-05-01T03:11:47;99726.81;;;8.16;100.00
62201;BME280;48197;42.732;27.192;2023-05-01T03:14:14;99725.22;;;8.15;100.00
62201;BME280;48197;42.732;27.192;2023-05-01T03:16:41;99731.19;;;8.24;100.00
62201;BME280;48197;42.732;27.192;2023-05-01T03:19:09;99736.38;;;8.51;100.00
62201;BME280;48197;42.732;27.192;2023-05-01T03:21:36;99734.47;;;8.76;100.00
62201;BME280;48197;42.732;27.192;2023-05-01T03:24:03;99730.56;;;8.95;100.00
62201;BME280;48197;42.732;27.192;2023-05-01T03:26:30;99732.91;;;9.15;100.00
62201;BME280;48197;42.732;27.192;2023-05-01T03:28:58;99740.78;;;9.42;100.00
62201;BME280;48197;42.732;27.192;2023-05-01T03:31:25;99745.09;;;9.60;100.00
62201;BME280;48197;42.732;27.192;2023-05-01T03:33:52;99746.31;;;9.42;100.00
62201;BME280;48197;42.732;27.192;2023-05-01T03:36:18;99749.06;;;8.95;100.00
62201;BME280;48197;42.732;27.192;2023-05-01T03:38:45;99758.88;;;8.60;100.00
62201;BME280;48197;42.732;27.192;2023-05-01T03:41:13;99759.19;;;8.41;100.00
62201;BME280;48197;42.732;27.192;2023-05-01T03:43:40;99765.41;;;8.34;100.00
62201;BME280;48197;42.732;27.192;2023-05-01T03:46:06;99768.19;;;8.30;100.00
62201;BME280;48197;42.732;27.192;2023-05-01T03:48:33;99766.59;;;8.29;100.00
62201;BME280;48197;42.732;27.192;2023-05-01T03:51:00;99765.41;;;8.34;100.00
62201;BME280;48197;42.732;27.192;2023-05-01T03:53:27;99783.97;;;8.41;100.00
62201;BME280;48197;42.732;27.192;2023-05-01T03:55:53;99773.00;;;8.48;100.00
62201;BME280;48197;42.732;27.192;2023-05-01T03:58:20;99778.94;;;8.61;100.00
62201;BME280;48197;42.732;27.192;2023-05-01T04:00:47;99781.34;;;8.80;100.00
62201;BME280;48197;42.732;27.192;2023-05-01T04:03:14;99785.28;;;9.04;100.00
62201;BME280;48197;42.732;27.192;2023-05-01T04:05:40;99786.91;;;9.27;100.00
62201;BME280;48197;42.732;27.192;2023-05-01T04:08:07;99799.09;;;9.47;100.00
62201;BME280;48197;42.732;27.192;2023-05-01T04:10:33;99795.16;;;9.63;100.00
62201;BME280;48197;42.732;27.192;2023-05-01T04:13:01;99800.25;;;9.75;100.00
62201;BME280;48197;42.732;27.192;2023-05-01T04:15:28;99799.06;;;9.87;100.00
62201;BME280;48197;42.732;27.192;2023-05-01T04:17:55;99806.53;;;9.97;100.00
62201;BME280;48197;42.732;27.192;2023-05-01T04:20:22;99800.97;;;10.00;100.00
62201;BME280;48197;42.732;27.192;2023-05-01T04:22:49;99802.19;;;9.99;100.00
62201;BME280;48197;42.732;27.192;2023-05-01T04:25:16;99809.63;;;10.13;100.00
62201;BME280;48197;42.732;27.192;2023-05-01T04:27:41;99807.22;;;10.26;100.00
62201;BME280;48197;42.732;27.192;2023-05-01T04:30:07;99799.72;;;10.37;100.00
62201;BME280;48197;42.732;27.192;2023-05-01T04:32:34;99795.34;;;10.44;100.00
62201;BME280;48197;42.732;27.192;2023-05-01T04:35:01;99800.06;;;10.43;100.00
62201;BME280;48197;42.732;27.192;2023-05-01T04:37:27;99802.44;;;10.41;100.00
62201;BME280;48197;42.732;27.192;2023-05-01T04:39:54;99807.22;;;10.33;100.00
62201;BME280;48197;42.732;27.192;2023-05-01T04:42:21;99806.03;;;10.27;100.00
62201;BME280;48197;42.732;27.192;2023-05-01T04:44:49;99802.50;;;10.19;100.00
62201;BME280;48197;42.732;27.192;2023-05-01T04:47:15;99809.63;;;10.17;100.00
62201;BME280;48197;42.732;27.192;2023-05-01T04:49:42;99808.03;;;10.27;100.00
62201;BME280;48197;42.732;27.192;2023-05-01T04:52:09;99808.38;;;10.43;100.00
62201;BME280;48197;42.732;27.192;2023-05-01T04:54:36;99812.56;;;10.73;100.00
62201;BME280;48197;42.732;27.192;2023-05-01T04:57:02;99816.31;;;11.08;100.00
62201;BME280;48197;42.732;27.192;2023-05-01T04:59:29;99818.38;;;11.49;100.00
62201;BME280;48197;42.732;27.192;2023-05-01T05:01:55;99828.34;;;11.84;100.00
62201;BME280;48197;42.732;27.192;2023-05-01T05:04:21;99822.53;;;12.13;100.00
62201;BME280;48197;42.732;27.192;2023-05-01T05:06:50;99823.81;;;12.39;100.00
62201;BME280;48197;42.732;27.192;2023-05-01T05:09:17;99830.81;;;12.51;100.00
62201;BME280;48197;42.732;27.192;2023-05-01T05:11:44;99840.25;;;12.57;100.00
62201;BME280;48197;42.732;27.192;2023-05-01T05:14:11;99832.94;;;12.70;100.00
62201;BME280;48197;42.732;27.192;2023-05-01T05:16:37;99846.13;;;12.93;100.00
62201;BME280;48197;42.732;27.192;2023-05-01T05:19:04;99846.19;;;13.17;100.00
62201;BME280;48197;42.732;27.192;2023-05-01T05:21:30;99843.94;;;13.35;100.00
62201;BME280;48197;42.732;27.192;2023-05-01T05:23:58;99848.84;;;13.51;100.00
62201;BME280;48197;42.732;27.192;2023-05-01T05:26:24;99849.59;;;13.55;100.00
62201;BME280;48197;42.732;27.192;2023-05-01T05:28:54;99853.81;;;13.63;100.00
62201;BME280;48197;42.732;27.192;2023-05-01T05:31:19;99859.84;;;13.58;100.00
62201;BME280;48197;42.732;27.192;2023-05-01T05:33:46;99866.69;;;13.50;100.00
62201;BME280;48197;42.732;27.192;2023-05-01T05:36:13;99868.66;;;13.53;100.00
62201;BME280;48197;42.732;27.192;2023-05-01T05:38:39;99870.69;;;13.49;100.00
62201;BME280;48197;42.732;27.192;2023-05-01T05:41:09;99870.63;;;13.53;100.00
62201;BME280;48197;42.732;27.192;2023-05-01T05:43:38;99881.91;;;13.65;100.00
62201;BME280;48197;42.732;27.192;2023-05-01T05:46:05;99887.25;;;13.80;100.00
62201;BME280;48197;42.732;27.192;2023-05-01T05:48:32;99889.03;;;13.94;100.00
62201;BME280;48197;42.732;27.192;2023-05-01T05:50:58;99893.06;;;14.13;100.00
62201;BME280;48197;42.732;27.192;2023-05-01T05:53:25;99901.13;;;14.27;100.00
62201;BME280;48197;42.732;27.192;2023-05-01T05:55:52;99907.44;;;14.51;100.00
62201;BME280;48197;42.732;27.192;2023-05-01T05:58:19;99905.41;;;14.75;100.00
62201;BME280;48197;42.732;27.192;2023-05-01T06:00:46;99916.44;;;14.99;100.00
62201;BME280;48197;42.732;27.192;2023-05-01T06:03:13;99916.75;;;15.21;100.00
62201;BME280;48197;42.732;27.192;2023-05-01T06:05:40;99914.88;;;15.34;100.00
62201;BME280;48197;42.732;27.192;2023-05-01T06:08:07;99917.06;;;15.43;100.00
62201;BME280;48197;42.732;27.192;2023-05-01T06:10:36;99921.69;;;15.49;100.00
62201;BME280;48197;42.732;27.192;2023-05-01T06:13:04;99925.25;;;15.50;100.00
62201;BME280;48197;42.732;27.192;2023-05-01T06:15:35;99923.16;;;15.54;100.00
62201;BME280;48197;42.732;27.192;2023-05-01T06:18:02;99931.81;;;15.60;100.00
62201;BME280;48197;42.732;27.192;2023-05-01T06:20:29;99928.97;;;15.80;100.00
62201;BME280;48197;42.732;27.192;2023-05-01T06:22:56;99929.03;;;15.92;100.00
62201;BME280;48197;42.732;27.192;2023-05-01T06:25:23;99939.38;;;16.08;100.00
62201;BME280;48197;42.732;27.192;2023-05-01T06:27:50;99933.59;;;16.32;100.00
62201;BME280;48197;42.732;27.192;2023-05-01T06:30:17;99939.97;;;16.62;100.00
62201;BME280;48197;42.732;27.192;2023-05-01T06:32:47;99939.91;;;16.94;100.00
62201;BME280;48197;42.732;27.192;2023-05-01T06:35:14;99947.13;;;17.34;100.00
62201;BME280;48197;42.732;27.192;2023-05-01T06:37:41;99938.97;;;17.78;100.00
62201;BME280;48197;42.732;27.192;2023-05-01T06:40:08;99943.88;;;18.00;100.00
62201;BME280;48197;42.732;27.192;2023-05-01T06:42:37;99947.09;;;18.11;100.00
62201;BME280;48197;42.732;27.192;2023-05-01T06:45:04;99949.03;;;18.01;100.00
62201;BME280;48197;42.732;27.192;2023-05-01T06:47:36;99956.19;;;17.89;100.00
62201;BME280;48197;42.732;27.192;2023-05-01T06:50:02;99947.41;;;18.26;100.00
62201;BME280;48197;42.732;27.192;2023-05-01T06:52:29;99956.41;;;18.43;98.30
62201;BME280;48197;42.732;27.192;2023-05-01T06:54:58;99959.03;;;18.59;95.81
62201;BME280;48197;42.732;27.192;2023-05-01T06:57:25;99964.66;;;19.25;92.71
62201;BME280;48197;42.732;27.192;2023-05-01T06:59:52;99960.81;;;20.04;88.62
62201;BME280;48197;42.732;27.192;2023-05-01T07:02:18;99964.16;;;20.76;83.96
62201;BME280;48197;42.732;27.192;2023-05-01T07:04:44;99959.41;;;21.10;78.33
62201;BME280;48197;42.732;27.192;2023-05-01T07:07:11;99962.25;;;21.00;76.36
62201;BME280;48197;42.732;27.192;2023-05-01T07:09:39;99967.19;;;21.24;71.40
62201;BME280;48197;42.732;27.192;2023-05-01T07:12:05;99970.31;;;21.78;70.25
62201;BME280;48197;42.732;27.192;2023-05-01T07:14:33;99968.88;;;22.64;68.55
62201;BME280;48197;42.732;27.192;2023-05-01T07:17:00;99973.47;;;24.77;60.27
62201;BME280;48197;42.732;27.192;2023-05-01T07:19:27;99976.31;;;25.03;55.79
62201;BME280;48197;42.732;27.192;2023-05-01T07:21:53;99983.47;;;24.52;55.31
62201;BME280;48197;42.732;27.192;2023-05-01T07:24:20;99975.22;;;24.34;54.23
62201;BME280;48197;42.732;27.192;2023-05-01T07:26:47;99997.31;;;23.79;56.36
62201;BME280;48197;42.732;27.192;2023-05-01T07:29:13;99996.88;;;23.21;57.15
62201;BME280;48197;42.732;27.192;2023-05-01T07:31:42;99993.28;;;22.82;56.08
62201;BME280;48197;42.732;27.192;2023-05-01T07:34:09;100005.84;;;22.33;52.33
62201;BME280;48197;42.732;27.192;2023-05-01T07:36:35;100003.41;;;22.16;50.45
62201;BME280;48197;42.732;27.192;2023-05-01T07:39:02;100008.06;;;21.95;46.61
62201;BME280;48197;42.732;27.192;2023-05-01T07:41:29;100011.31;;;21.60;44.08
62201;BME280;48197;42.732;27.192;2023-05-01T07:43:59;100014.19;;;21.51;42.92
62201;BME280;48197;42.732;27.192;2023-05-01T07:46:27;100021.53;;;21.49;40.77
62201;BME280;48197;42.732;27.192;2023-05-01T07:48:53;100019.81;;;21.33;39.65
62201;BME280;48197;42.732;27.192;2023-05-01T07:51:20;100015.53;;;21.65;38.99
62201;BME280;48197;42.732;27.192;2023-05-01T07:53:47;100015.16;;;21.81;40.44
62201;BME280;48197;42.732;27.192;2023-05-01T07:56:14;100016.09;;;22.45;40.78
62201;BME280;48197;42.732;27.192;2023-05-01T07:58:42;100018.16;;;24.38;37.15
62201;BME280;48197;42.732;27.192;2023-05-01T08:01:09;100016.38;;;25.22;32.20
62201;BME280;48197;42.732;27.192;2023-05-01T08:03:36;100016.13;;;26.21;29.47
62201;BME280;48197;42.732;27.192;2023-05-01T08:06:03;100013.88;;;25.94;30.16
62201;BME280;48197;42.732;27.192;2023-05-01T08:08:29;100015.94;;;26.96;27.93
62201;BME280;48197;42.732;27.192;2023-05-01T08:10:56;100020.06;;;27.01;27.44
62201;BME280;48197;42.732;27.192;2023-05-01T08:13:22;100024.56;;;25.46;28.15
62201;BME280;48197;42.732;27.192;2023-05-01T08:15:48;100023.22;;;24.69;28.26
62201;BME280;48197;42.732;27.192;2023-05-01T08:18:14;100022.41;;;24.89;29.08
62201;BME280;48197;42.732;27.192;2023-05-01T08:20:45;100027.00;;;24.86;28.34
62201;BME280;48197;42.732;27.192;2023-05-01T08:23:13;100038.41;;;24.72;27.63
62201;BME280;48197;42.732;27.192;2023-05-01T08:25:40;100032.81;;;23.71;28.37
62201;BME280;48197;42.732;27.192;2023-05-01T08:28:07;100036.22;;;22.53;30.97
62201;BME280;48197;42.732;27.192;2023-05-01T08:30:34;100038.38;;;22.34;31.65
62201;BME280;48197;42.732;27.192;2023-05-01T08:33:00;100021.50;;;24.01;29.80
62201;BME280;48197;42.732;27.192;2023-05-01T08:35:27;100029.94;;;25.18;28.41
62201;BME280;48197;42.732;27.192;2023-05-01T08:37:54;100034.84;;;26.07;27.68
62201;BME280;48197;42.732;27.192;2023-05-01T08:40:22;100033.69;;;26.31;28.55
62201;BME280;48197;42.732;27.192;2023-05-01T08:42:48;100032.16;;;25.93;28.04
62201;BME280;48197;42.732;27.192;2023-05-01T08:45:14;100029.19;;;26.13;27.54
62201;BME280;48197;42.732;27.192;2023-05-01T08:47:41;100033.41;;;26.78;27.78
62201;BME280;48197;42.732;27.192;2023-05-01T08:50:10;100031.00;;;27.64;27.03
62201;BME280;48197;42.732;27.192;2023-05-01T08:52:42;100026.03;;;28.33;27.08
62201;BME280;48197;42.732;27.192;2023-05-01T08:55:13;100027.47;;;28.67;25.82
62201;BME280;48197;42.732;27.192;2023-05-01T08:57:47;100031.28;;;28.00;25.64
62201;BME280;48197;42.732;27.192;2023-05-01T09:00:18;100034.28;;;27.12;26.30
62201;BME280;48197;42.732;27.192;2023-05-01T09:02:45;100034.84;;;26.56;27.60
62201;BME280;48197;42.732;27.192;2023-05-01T09:05:14;100034.50;;;27.03;28.25
62201;BME280;48197;42.732;27.192;2023-05-01T09:07:41;100022.22;;;27.45;28.75
62201;BME280;48197;42.732;27.192;2023-05-01T09:10:10;100026.31;;;28.12;27.81
62201;BME280;48197;42.732;27.192;2023-05-01T09:12:36;100018.75;;;28.43;26.12
62201;BME280;48197;42.732;27.192;2023-05-01T09:15:04;100020.13;;;28.19;26.90
62201;BME280;48197;42.732;27.192;2023-05-01T09:17:33;100026.88;;;27.32;27.92
62201;BME280;48197;42.732;27.192;2023-05-01T09:20:00;100028.69;;;27.52;27.68
62201;BME280;48197;42.732;27.192;2023-05-01T09:22:28;100026.63;;;27.58;26.65
62201;BME280;48197;42.732;27.192;2023-05-01T09:24:55;100024.81;;;27.38;27.90
62201;BME280;48197;42.732;27.192;2023-05-01T09:27:22;100025.75;;;26.95;26.76
62201;BME280;48197;42.732;27.192;2023-05-01T09:29:49;100029.34;;;25.98;28.76
62201;BME280;48197;42.732;27.192;2023-05-01T09:34:42;100032.75;;;24.72;29.71
62201;BME280;48197;42.732;27.192;2023-05-01T09:37:11;100036.53;;;25.10;28.80
62201;BME280;48197;42.732;27.192;2023-05-01T10:10:43;100047.97;;;22.75;32.49
62201;BME280;48197;42.732;27.192;2023-05-01T10:13:16;100045.88;;;23.00;32.96
62201;BME280;48197;42.732;27.192;2023-05-01T10:15:45;100041.84;;;23.01;32.89
62201;BME280;48197;42.732;27.192;2023-05-01T10:18:12;100036.19;;;23.01;33.06
62201;BME280;48197;42.732;27.192;2023-05-01T10:20:39;100043.50;;;23.08;32.83
62201;BME280;48197;42.732;27.192;2023-05-01T10:23:06;100031.03;;;24.03;31.96
62201;BME280;48197;42.732;27.192;2023-05-01T10:25:33;100032.88;;;24.83;31.97
62201;BME280;48197;42.732;27.192;2023-05-01T10:28:02;100036.53;;;25.10;31.11
62201;BME280;48197;42.732;27.192;2023-05-01T10:30:31;100030.72;;;24.98;31.34
62201;BME280;48197;42.732;27.192;2023-05-01T10:32:58;100026.47;;;25.29;31.86
62201;BME280;48197;42.732;27.192;2023-05-01T10:35:28;100042.31;;;25.79;30.36
62201;BME280;48197;42.732;27.192;2023-05-01T10:43:13;100032.13;;;26.30;28.82
62201;BME280;48197;42.732;27.192;2023-05-01T10:45:46;100029.59;;;25.63;28.54
62201;BME280;48197;42.732;27.192;2023-05-01T10:51:12;100043.50;;;25.93;28.61
62201;BME280;48197;42.732;27.192;2023-05-01T10:53:40;100035.84;;;26.04;28.74
62201;BME280;48197;42.732;27.192;2023-05-01T11:01:32;100032.78;;;27.22;28.03
62201;BME280;48197;42.732;27.192;2023-05-01T11:04:01;100039.25;;;27.51;27.34
62201;BME280;48197;42.732;27.192;2023-05-01T11:06:29;100031.75;;;27.37;27.59
62201;BME280;48197;42.732;27.192;2023-05-01T11:08:56;100036.94;;;27.49;26.12
62201;BME280;48197;42.732;27.192;2023-05-01T11:21:37;100044.03;;;26.94;25.54
62201;BME280;48197;42.732;27.192;2023-05-01T11:24:04;100036.41;;;27.34;26.00
62201;BME280;48197;42.732;27.192;2023-05-01T11:26:31;100052.31;;;27.09;24.39
62201;BME280;48197;42.732;27.192;2023-05-01T11:28:59;100041.56;;;27.30;25.93
62201;BME280;48197;42.732;27.192;2023-05-01T11:31:26;100044.41;;;27.41;25.25
62201;BME280;48197;42.732;27.192;2023-05-01T11:33:55;100039.78;;;27.55;25.14
62201;BME280;48197;42.732;27.192;2023-05-01T11:36:22;100041.97;;;27.00;23.37
62201;BME280;48197;42.732;27.192;2023-05-01T11:38:52;100046.25;;;26.67;24.85
62201;BME280;48197;42.732;27.192;2023-05-01T11:41:21;100033.00;;;27.19;25.15
62201;BME280;48197;42.732;27.192;2023-05-01T11:43:51;100035.88;;;27.24;24.86
62201;BME280;48197;42.732;27.192;2023-05-01T11:46:25;100037.97;;;27.63;25.57
62201;BME280;48197;42.732;27.192;2023-05-01T11:48:59;100035.66;;;27.79;24.48
62201;BME280;48197;42.732;27.192;2023-05-01T11:51:26;100038.22;;;27.71;24.00
62201;BME280;48197;42.732;27.192;2023-05-01T11:56:29;100025.84;;;27.74;24.66
62201;BME280;48197;42.732;27.192;2023-05-01T11:58:57;100015.53;;;27.88;24.05
62201;BME280;48197;42.732;27.192;2023-05-01T12:01:33;100019.91;;;28.06;23.68
62201;BME280;48197;42.732;27.192;2023-05-01T12:04:01;100019.66;;;28.79;23.51
62201;BME280;48197;42.732;27.192;2023-05-01T12:06:37;100024.53;;;29.31;22.88
62201;BME280;48197;42.732;27.192;2023-05-01T12:09:06;100015.72;;;29.96;22.14
62201;BME280;48197;42.732;27.192;2023-05-01T12:11:34;100017.72;;;30.31;22.17
62201;BME280;48197;42.732;27.192;2023-05-01T12:14:01;100022.44;;;30.28;21.53
62201;BME280;48197;42.732;27.192;2023-05-01T12:16:27;100018.34;;;30.18;21.24
62201;BME280;48197;42.732;27.192;2023-05-01T12:18:54;100017.75;;;30.01;21.65
62201;BME280;48197;42.732;27.192;2023-05-01T12:21:21;100014.75;;;30.18;21.84
62201;BME280;48197;42.732;27.192;2023-05-01T12:23:50;100020.88;;;29.73;21.94
62201;BME280;48197;42.732;27.192;2023-05-01T12:26:23;100019.69;;;29.57;22.33
62201;BME280;48197;42.732;27.192;2023-05-01T12:31:19;100029.59;;;29.08;22.04
62201;BME280;48197;42.732;27.192;2023-05-01T12:33:52;100020.81;;;28.59;21.42
62201;BME280;48197;42.732;27.192;2023-05-01T12:36:20;100028.66;;;28.19;22.19
62201;BME280;48197;42.732;27.192;2023-05-01T12:39:02;100022.59;;;28.62;21.99
62201;BME280;48197;42.732;27.192;2023-05-01T12:41:42;100028.53;;;28.59;22.17
62201;BME280;48197;42.732;27.192;2023-05-01T12:44:16;100038.19;;;28.97;21.51
62201;BME280;48197;42.732;27.192;2023-05-01T12:46:42;100038.13;;;29.08;21.19
62201;BME280;48197;42.732;27.192;2023-05-01T12:49:19;100039.63;;;28.68;20.87
62201;BME280;48197;42.732;27.192;2023-05-01T12:51:46;100036.88;;;28.28;21.45
62201;BME280;48197;42.732;27.192;2023-05-01T12:54:20;100049.34;;;27.92;22.28
62201;BME280;48197;42.732;27.192;2023-05-01T12:56:48;100045.44;;;27.49;21.73
62201;BME280;48197;42.732;27.192;2023-05-01T12:59:22;100037.72;;;27.56;22.64
62201;BME280;48197;42.732;27.192;2023-05-01T13:01:55;100049.56;;;27.54;21.96
62201;BME280;48197;42.732;27.192;2023-05-01T13:04:23;100041.31;;;27.39;22.62
62201;BME280;48197;42.732;27.192;2023-05-01T13:06:52;100045.69;;;27.35;22.06
62201;BME280;48197;42.732;27.192;2023-05-01T13:09:23;100051.00;;;26.99;22.10
62201;BME280;48197;42.732;27.192;2023-05-01T13:12:04;100044.13;;;27.22;22.75
62201;BME280;48197;42.732;27.192;2023-05-01T13:14:41;100047.00;;;27.34;22.61
62201;BME280;48197;42.732;27.192;2023-05-01T13:17:07;100041.59;;;27.53;22.60
62201;BME280;48197;42.732;27.192;2023-05-01T13:19:34;100046.22;;;27.84;22.49
62201;BME280;48197;42.732;27.192;2023-05-01T13:22:01;100038.97;;;27.32;21.59
62201;BME280;48197;42.732;27.192;2023-05-01T13:27:10;100037.69;;;27.22;21.78
62201;BME280;48197;42.732;27.192;2023-05-01T13:29:37;100047.38;;;26.93;22.07
62201;BME280;48197;42.732;27.192;2023-05-01T13:32:04;100059.03;;;26.52;22.56
62201;BME280;48197;42.732;27.192;2023-05-01T13:34:32;100051.13;;;25.86;23.23
62201;BME280;48197;42.732;27.192;2023-05-01T13:37:01;100043.66;;;25.25;23.30
62201;BME280;48197;42.732;27.192;2023-05-01T13:39:29;100051.81;;;24.97;24.50
62201;BME280;48197;42.732;27.192;2023-05-01T13:41:55;100048.97;;;24.97;25.07
62201;BME280;48197;42.732;27.192;2023-05-01T13:44:21;100052.41;;;25.07;24.87
62201;BME280;48197;42.732;27.192;2023-05-01T13:46:48;100052.53;;;24.72;24.17
62201;BME280;48197;42.732;27.192;2023-05-01T13:49:16;100056.63;;;24.71;25.20
62201;BME280;48197;42.732;27.192;2023-05-01T13:51:46;100056.84;;;24.67;24.88
62201;BME280;48197;42.732;27.192;2023-05-01T13:54:14;100060.88;;;24.60;24.51
62201;BME280;48197;42.732;27.192;2023-05-01T13:56:42;100063.47;;;24.64;25.02
62201;BME280;48197;42.732;27.192;2023-05-01T13:59:12;100075.44;;;24.38;24.07
62201;BME280;48197;42.732;27.192;2023-05-01T14:01:40;100062.00;;;24.33;24.92
62201;BME280;48197;42.732;27.192;2023-05-01T14:04:24;100060.38;;;24.47;25.47
62201;BME280;48197;42.732;27.192;2023-05-01T14:06:51;100064.56;;;24.31;25.47